createdAt,value
2023-05-10T00:01:24.743Z,16.95
2023-05-10T00:03:56.373Z,16.78
2023-05-10T00:06:28.920Z,17.32
2023-05-10T00:09:00.604Z,16.78
2023-05-10T00:11:32.391Z,16.93
2023-05-10T00:14:06.981Z,17.80
2023-05-10T00:16:38.674Z,17.38
2023-05-10T00:19:13.252Z,17.18
2023-05-10T00:21:44.870Z,16.69
2023-05-10T00:24:18.975Z,17.45
2023-05-10T00:26:52.676Z,16.63
2023-05-10T00:29:24.306Z,16.66
2023-05-10T00:31:56.006Z,16.71
2023-05-10T00:34:28.542Z,16.67
2023-05-10T00:37:00.148Z,16.78
2023-05-10T00:39:31.738Z,16.61
2023-05-10T00:42:03.486Z,16.91
2023-05-10T00:44:35.167Z,16.25
2023-05-10T00:47:07.398Z,16.56
2023-05-10T00:49:39.028Z,16.37
2023-05-10T00:52:11.121Z,16.37
2023-05-10T00:54:45.455Z,16.52
2023-05-10T00:57:17.144Z,16.82
2023-05-10T00:59:49.389Z,16.70
2023-05-10T01:02:20.968Z,16.17
2023-05-10T01:04:53.123Z,16.12
2023-05-10T01:07:24.750Z,16.04
2023-05-10T01:09:59.513Z,16.88
2023-05-10T01:12:31.427Z,16.73
2023-05-10T01:15:03.938Z,16.49
2023-05-10T01:17:38.803Z,16.66
2023-05-10T01:20:11.993Z,16.10
2023-05-10T01:23:10.643Z,16.86
2023-05-10T01:25:53.702Z,16.87
2023-05-10T01:28:45.737Z,17.15
2023-05-10T01:31:42.011Z,17.34
2023-05-10T01:34:21.081Z,16.84
2023-05-10T01:37:10.059Z,16.72
2023-05-10T01:40:10.873Z,16.50
2023-05-10T01:42:55.518Z,16.70
2023-05-10T01:46:00.371Z,17.07
2023-05-10T01:48:32.919Z,16.53
2023-05-10T01:51:07.006Z,16.28
2023-05-10T01:53:40.109Z,16.72
2023-05-10T01:56:16.167Z,16.62
2023-05-10T01:58:49.489Z,16.49
2023-05-10T02:01:23.218Z,16.82
2023-05-10T02:03:56.605Z,16.53
2023-05-10T02:06:28.439Z,16.47
2023-05-10T02:09:02.765Z,16.65
2023-05-10T02:11:34.708Z,16.34
2023-05-10T02:14:10.532Z,16.16
2023-05-10T02:16:43.379Z,15.81
2023-05-10T02:19:16.259Z,16.07
2023-05-10T02:21:48.860Z,16.63
2023-05-10T02:24:22.550Z,15.82
2023-05-10T02:26:56.816Z,16.37
2023-05-10T02:29:29.421Z,16.73
2023-05-10T02:32:02.574Z,16.50
2023-05-10T02:34:34.766Z,16.70
2023-05-10T02:37:09.574Z,16.94
2023-05-10T02:39:45.045Z,16.82
2023-05-10T02:42:24.688Z,17.16
2023-05-10T02:45:03.161Z,17.26
2023-05-10T02:47:35.350Z,17.11
2023-05-10T02:50:08.095Z,16.74
2023-05-10T02:52:50.685Z,16.88
2023-05-10T02:55:33.431Z,16.86
2023-05-10T02:58:07.281Z,17.07
2023-05-10T03:00:38.882Z,16.88
2023-05-10T03:03:10.632Z,16.65
2023-05-10T03:05:42.501Z,16.71
2023-05-10T03:08:14.147Z,16.74
2023-05-10T03:11:36.870Z,16.64
2023-05-10T03:14:45.125Z,16.70
2023-05-10T03:17:42.037Z,16.48
2023-05-10T03:20:26.557Z,16.12
2023-05-10T03:23:17.395Z,16.81
2023-05-10T03:25:51.350Z,16.99
2023-05-10T03:28:26.836Z,16.78
2023-05-10T03:30:59.934Z,16.96
2023-05-10T03:33:31.783Z,16.75
2023-05-10T03:36:03.693Z,16.64
2023-05-10T03:38:35.337Z,16.65
2023-05-10T03:41:07.080Z,16.88
2023-05-10T03:43:39.466Z,17.15
2023-05-10T03:46:11.505Z,17.48
2023-05-10T03:48:43.185Z,17.10
2023-05-10T03:51:14.782Z,17.40
2023-05-10T03:53:49.407Z,17.51
2023-05-10T03:56:24.107Z,17.51
2023-05-10T03:58:55.689Z,17.61
2023-05-10T04:01:30.605Z,17.44
2023-05-10T04:04:02.500Z,17.73
2023-05-10T04:06:34.180Z,17.50
2023-05-10T04:09:06.454Z,17.11
2023-05-10T04:11:38.134Z,17.22
2023-05-10T04:14:10.098Z,17.42
2023-05-10T04:16:41.761Z,17.31
2023-05-10T04:19:13.424Z,17.10
2023-05-10T04:21:45.039Z,17.35
2023-05-10T04:24:16.701Z,17.44
2023-05-10T04:26:48.262Z,17.50
2023-05-10T04:29:19.897Z,17.51
2023-05-10T04:31:52.002Z,17.26
2023-05-10T04:34:23.665Z,17.78
2023-05-10T04:36:55.318Z,17.68
2023-05-10T04:39:26.881Z,17.73
2023-05-10T04:41:58.400Z,17.02
2023-05-10T04:44:30.740Z,17.65
2023-05-10T04:47:03.279Z,17.73
2023-05-10T04:49:34.921Z,17.96
2023-05-10T04:52:06.474Z,18.00
2023-05-10T04:54:38.225Z,17.97
2023-05-10T04:57:12.167Z,17.94
2023-05-10T04:59:43.893Z,17.39
2023-05-10T05:02:15.492Z,17.89
2023-05-10T05:04:47.264Z,18.05
2023-05-10T05:07:18.840Z,18.41
2023-05-10T05:09:50.508Z,18.51
2023-05-10T05:12:22.047Z,18.27
2023-05-10T05:14:53.636Z,17.94
2023-05-10T05:17:25.247Z,18.20
2023-05-10T05:19:57.051Z,17.99
2023-05-10T05:22:30.086Z,18.27
2023-05-10T05:25:03.448Z,18.42
2023-05-10T05:27:35.039Z,18.76
2023-05-10T05:30:07.672Z,19.09
2023-05-10T05:32:39.325Z,18.99
2023-05-10T05:35:10.965Z,18.75
2023-05-10T05:37:42.583Z,19.37
2023-05-10T05:40:15.051Z,19.11
2023-05-10T05:42:46.780Z,19.17
2023-05-10T05:45:18.791Z,19.20
2023-05-10T05:47:50.608Z,18.87
2023-05-10T05:50:22.659Z,19.32
2023-05-10T05:52:58.161Z,19.14
2023-05-10T05:55:30.626Z,18.89
2023-05-10T05:58:02.186Z,18.90
2023-05-10T06:00:33.820Z,18.64
2023-05-10T06:03:05.486Z,18.61
2023-05-10T06:05:37.154Z,18.54
2023-05-10T06:08:08.820Z,18.50
2023-05-10T06:10:40.423Z,18.07
2023-05-10T06:13:14.935Z,18.67
2023-05-10T06:15:46.502Z,18.63
2023-05-10T06:18:18.170Z,19.02
2023-05-10T06:20:53.490Z,18.60
2023-05-10T06:23:26.470Z,18.76
2023-05-10T06:25:58.103Z,18.64
2023-05-10T06:28:32.214Z,18.39
2023-05-10T06:31:03.960Z,18.97
2023-05-10T06:33:36.270Z,18.53
2023-05-10T06:36:08.056Z,18.17
2023-05-10T06:38:40.026Z,18.18
2023-05-10T06:41:11.831Z,18.32
2023-05-10T06:43:44.332Z,18.50
2023-05-10T06:46:19.029Z,19.01
2023-05-10T06:48:50.982Z,19.39
2023-05-10T06:51:22.644Z,18.33
2023-05-10T06:53:54.192Z,19.01
2023-05-10T06:56:25.808Z,19.13
2023-05-10T06:58:57.390Z,19.21
2023-05-10T07:01:32.123Z,19.13
2023-05-10T07:04:03.709Z,19.06
2023-05-10T07:06:35.659Z,19.07
2023-05-10T07:09:11.222Z,19.50
2023-05-10T07:11:42.800Z,19.47
2023-05-10T07:14:14.326Z,19.44
2023-05-10T07:16:46.036Z,19.42
2023-05-10T07:19:17.625Z,19.45
2023-05-10T07:21:49.296Z,19.12
2023-05-10T07:24:21.001Z,19.11
2023-05-10T07:26:52.581Z,19.49
2023-05-10T07:29:24.251Z,19.40
2023-05-10T07:31:58.540Z,19.49
2023-05-10T07:34:31.443Z,19.01
2023-05-10T07:37:03.209Z,18.85
2023-05-10T07:39:34.773Z,18.52
2023-05-10T07:42:06.704Z,18.87
2023-05-10T07:44:38.278Z,19.02
2023-05-10T07:47:09.974Z,18.59
2023-05-10T07:49:41.737Z,18.49
2023-05-10T07:52:13.313Z,18.51
2023-05-10T07:54:45.600Z,19.14
2023-05-10T07:57:18.586Z,19.71
2023-05-10T07:59:50.155Z,19.79
2023-05-10T08:02:21.756Z,19.39
2023-05-10T08:04:53.877Z,19.53
2023-05-10T08:07:25.975Z,19.89
2023-05-10T08:09:57.622Z,19.99
2023-05-10T08:12:29.278Z,20.02
2023-05-10T08:15:01.090Z,19.77
2023-05-10T08:17:32.770Z,19.79
2023-05-10T08:22:51.914Z,19.93
2023-05-10T08:25:23.651Z,19.25
2023-05-10T08:27:55.296Z,19.45
2023-05-10T08:30:26.926Z,19.27
2023-05-10T08:32:58.542Z,19.81
2023-05-10T08:35:30.287Z,20.06
2023-05-10T08:38:02.307Z,19.95
2023-05-10T08:40:34.145Z,20.21
2023-05-10T08:43:09.583Z,20.85
2023-05-10T08:45:44.280Z,21.21
2023-05-10T08:48:17.416Z,20.19
2023-05-10T08:50:49.761Z,20.98
2023-05-10T08:53:25.085Z,19.88
2023-05-10T08:55:57.040Z,20.69
2023-05-10T08:58:29.022Z,20.69
2023-05-10T09:01:02.201Z,21.24
2023-05-10T09:03:33.946Z,20.79
2023-05-10T09:06:06.155Z,21.45
2023-05-10T09:08:41.043Z,22.07
2023-05-10T09:11:14.069Z,22.10
2023-05-10T09:13:46.272Z,22.22
2023-05-10T09:16:21.663Z,21.48
2023-05-10T09:18:54.017Z,21.57
2023-05-10T09:21:26.121Z,19.53
2023-05-10T09:23:57.832Z,20.74
2023-05-10T09:26:29.419Z,19.26
2023-05-10T09:29:01.483Z,19.76
2023-05-10T09:31:59.185Z,21.29
2023-05-10T09:34:33.186Z,21.11
2023-05-10T09:37:05.537Z,21.60
2023-05-10T09:39:38.739Z,19.44
2023-05-10T09:42:10.962Z,20.23
2023-05-10T09:44:44.392Z,21.33
2023-05-10T09:47:22.729Z,22.51
2023-05-10T09:49:56.606Z,23.00
2023-05-10T09:52:28.281Z,20.97
2023-05-10T09:54:59.965Z,20.63
2023-05-10T09:57:32.359Z,20.73
2023-05-10T10:00:07.994Z,20.91
2023-05-10T10:02:40.608Z,21.52
2023-05-10T10:05:12.890Z,21.14
2023-05-10T10:07:50.206Z,20.61
2023-05-10T10:10:22.149Z,20.09
2023-05-10T10:12:54.745Z,19.60
2023-05-10T10:15:26.802Z,19.99
2023-05-10T10:17:58.501Z,20.35
2023-05-10T10:20:30.342Z,19.20
2023-05-10T10:23:01.941Z,20.78
2023-05-10T10:25:34.025Z,21.17
2023-05-10T10:28:17.137Z,20.47
2023-05-10T10:30:52.244Z,19.93
2023-05-10T10:33:58.158Z,20.88
2023-05-10T10:36:30.194Z,21.53
2023-05-10T10:39:04.076Z,20.69
2023-05-10T10:41:38.492Z,20.71
2023-05-10T10:44:37.024Z,21.63
2023-05-10T10:47:24.363Z,21.17
2023-05-10T10:49:58.806Z,21.60
2023-05-10T10:52:47.314Z,21.32
2023-05-10T10:55:23.485Z,21.18
2023-05-10T10:58:02.052Z,20.81
2023-05-10T11:00:38.443Z,20.99
2023-05-10T11:03:18.420Z,20.77
2023-05-10T11:05:55.319Z,20.62
2023-05-10T11:08:30.031Z,20.68
2023-05-10T11:11:01.716Z,19.93
2023-05-10T11:13:39.198Z,20.52
2023-05-10T11:16:21.803Z,20.94
2023-05-10T11:19:03.605Z,21.03
2023-05-10T11:22:12.665Z,20.98
2023-05-10T11:25:01.481Z,20.67
2023-05-10T11:27:34.116Z,21.19
2023-05-10T11:30:07.989Z,19.81
2023-05-10T11:32:40.631Z,20.60
2023-05-10T11:35:13.350Z,19.92
2023-05-10T11:37:49.180Z,19.70
2023-05-10T11:40:25.599Z,20.11
2023-05-10T11:42:57.562Z,20.06
2023-05-10T11:45:36.525Z,19.62
2023-05-10T11:48:08.820Z,19.68
2023-05-10T11:50:47.386Z,19.81
2023-05-10T11:53:25.821Z,21.06
2023-05-10T11:56:11.334Z,21.00
2023-05-10T11:58:43.169Z,20.37
2023-05-10T12:01:14.850Z,20.22
2023-05-10T12:03:46.896Z,20.12
2023-05-10T12:06:20.810Z,21.14
2023-05-10T12:08:55.274Z,20.88
2023-05-10T12:11:29.041Z,19.28
2023-05-10T12:14:00.626Z,20.37
2023-05-10T12:16:32.560Z,20.68
2023-05-10T12:19:04.317Z,20.62
2023-05-10T12:21:36.042Z,20.44
2023-05-10T12:24:08.816Z,19.96
2023-05-10T12:26:40.649Z,20.59
2023-05-10T12:29:18.102Z,20.49
2023-05-10T12:31:52.656Z,20.61
2023-05-10T12:34:39.764Z,19.69
2023-05-10T12:37:11.445Z,20.91
2023-05-10T12:39:47.222Z,19.89
2023-05-10T12:42:20.914Z,19.50
2023-05-10T12:44:57.648Z,20.57
2023-05-10T12:47:29.719Z,19.24
2023-05-10T12:50:03.693Z,19.03
2023-05-10T12:52:35.698Z,20.07
2023-05-10T12:55:07.797Z,20.35
2023-05-10T12:57:39.378Z,19.89
2023-05-10T13:00:11.753Z,21.49
2023-05-10T13:02:43.455Z,20.88
2023-05-10T13:05:15.080Z,20.94
2023-05-10T13:07:46.766Z,22.13
2023-05-10T13:10:18.729Z,21.71
2023-05-10T13:12:53.797Z,21.34
2023-05-10T13:15:26.206Z,20.07
2023-05-10T13:17:57.815Z,21.03
2023-05-10T13:20:36.756Z,19.21
2023-05-10T13:23:08.363Z,20.81
2023-05-10T13:25:40.227Z,21.27
2023-05-10T13:28:12.174Z,21.15
2023-05-10T13:30:43.717Z,20.08
2023-05-10T13:33:15.488Z,19.52
2023-05-10T13:35:47.355Z,20.72
2023-05-10T13:38:19.957Z,19.96
2023-05-10T13:40:53.905Z,19.92
2023-05-10T13:43:25.875Z,20.04
2023-05-10T13:45:57.805Z,21.05
2023-05-10T13:48:29.479Z,19.65
2023-05-10T13:51:01.058Z,19.87
2023-05-10T13:53:33.050Z,20.46
2023-05-10T13:56:07.667Z,19.61
2023-05-10T13:58:39.269Z,20.88
2023-05-10T14:01:11.068Z,20.75
2023-05-10T14:03:43.047Z,20.11
2023-05-10T14:06:14.724Z,20.53
2023-05-10T14:08:46.741Z,19.19
2023-05-10T14:11:18.529Z,21.15
2023-05-10T14:13:53.157Z,20.54
2023-05-10T14:16:24.991Z,20.38
2023-05-10T14:18:59.267Z,19.88
2023-05-10T14:21:31.709Z,21.43
2023-05-10T14:24:03.410Z,21.65
2023-05-10T14:26:35.638Z,21.20
2023-05-10T14:29:08.012Z,21.71
2023-05-10T14:31:41.425Z,22.01
2023-05-10T14:34:13.077Z,22.03
2023-05-10T14:36:44.743Z,20.75
2023-05-10T14:39:16.769Z,21.11
2023-05-10T14:41:48.466Z,21.11
2023-05-10T14:44:20.030Z,19.88
2023-05-10T14:46:51.874Z,18.86
2023-05-10T14:49:28.035Z,20.08
2023-05-10T14:51:59.640Z,20.51
2023-05-10T14:54:31.278Z,21.12
2023-05-10T14:57:02.876Z,21.08
2023-05-10T14:59:36.489Z,20.70
2023-05-10T15:02:09.389Z,19.99
2023-05-10T15:04:41.971Z,20.52
2023-05-10T15:07:16.526Z,19.90
2023-05-10T15:09:48.098Z,20.12
2023-05-10T15:12:20.212Z,19.76
2023-05-10T15:14:51.938Z,20.02
2023-05-10T15:17:23.502Z,20.21
2023-05-10T15:19:55.250Z,20.14
2023-05-10T15:22:29.164Z,20.20
2023-05-10T15:25:00.883Z,19.16
2023-05-10T15:27:32.431Z,20.03
2023-05-10T15:30:04.823Z,19.59
2023-05-10T15:32:36.600Z,19.29
2023-05-10T15:35:11.628Z,19.81
2023-05-10T15:37:43.443Z,19.44
2023-05-10T15:40:17.763Z,19.52
2023-05-10T15:42:49.437Z,18.86
2023-05-10T15:45:21.013Z,17.54
2023-05-10T15:47:52.899Z,19.10
2023-05-10T15:50:24.491Z,19.21
2023-05-10T15:52:56.237Z,19.55
2023-05-10T15:55:27.881Z,19.23
2023-05-10T15:57:59.552Z,19.41
2023-05-10T16:00:31.337Z,19.51
2023-05-10T16:03:03.120Z,19.10
2023-05-10T16:05:34.961Z,18.38
2023-05-10T16:08:06.528Z,19.36
2023-05-10T16:10:38.298Z,19.98
2023-05-10T16:13:09.934Z,19.80
2023-05-10T16:15:41.938Z,19.78
2023-05-10T16:18:13.624Z,19.49
2023-05-10T16:20:45.462Z,19.41
2023-05-10T16:23:20.166Z,18.87
2023-05-10T16:25:52.020Z,18.16
2023-05-10T16:28:23.608Z,18.11
2023-05-10T16:30:55.205Z,18.96
2023-05-10T16:33:26.985Z,18.89
2023-05-10T16:35:58.582Z,19.38
2023-05-10T16:38:30.339Z,19.37
2023-05-10T16:41:03.625Z,18.74
2023-05-10T16:43:35.790Z,19.03
2023-05-10T16:46:11.958Z,19.22
2023-05-10T16:48:43.655Z,19.45
2023-05-10T16:51:15.438Z,17.99
2023-05-10T16:53:49.218Z,19.18
2023-05-10T16:56:22.261Z,18.93
2023-05-10T16:58:54.083Z,19.14
2023-05-10T17:01:27.027Z,19.21
2023-05-10T17:03:58.988Z,19.22
2023-05-10T17:06:31.320Z,18.59
2023-05-10T17:09:04.050Z,18.86
2023-05-10T17:11:35.660Z,18.65
2023-05-10T17:14:10.085Z,18.74
2023-05-10T17:16:42.107Z,18.06
2023-05-10T17:19:14.598Z,18.70
2023-05-10T17:21:46.260Z,18.52
2023-05-10T17:24:20.277Z,18.58
2023-05-10T17:26:51.991Z,18.74
2023-05-10T17:29:23.944Z,18.70
2023-05-10T17:31:55.603Z,19.02
2023-05-10T17:34:27.375Z,18.46
2023-05-10T17:36:58.951Z,18.25
2023-05-10T17:39:30.684Z,18.71
2023-05-10T17:42:02.286Z,18.45
2023-05-10T17:44:36.912Z,18.86
2023-05-10T17:47:10.830Z,17.18
2023-05-10T17:49:42.490Z,18.08
2023-05-10T17:52:14.196Z,18.10
2023-05-10T17:54:45.738Z,17.80
2023-05-10T17:57:17.329Z,18.11
2023-05-10T17:59:48.842Z,17.70
2023-05-10T18:02:20.693Z,18.51
2023-05-10T18:04:52.488Z,18.95
2023-05-10T18:07:25.658Z,18.68
2023-05-10T18:09:57.798Z,18.98
2023-05-10T18:12:29.512Z,18.99
2023-05-10T18:15:04.292Z,18.52
2023-05-10T18:17:39.053Z,18.82
2023-05-10T18:20:10.896Z,18.14
2023-05-10T18:22:43.412Z,18.49
2023-05-10T18:25:15.300Z,18.19
2023-05-10T18:27:47.557Z,17.84
2023-05-10T18:30:19.443Z,18.09
2023-05-10T18:32:51.003Z,17.91
2023-05-10T18:35:22.878Z,18.68
2023-05-10T18:37:54.787Z,18.66
2023-05-10T18:40:27.426Z,18.47
2023-05-10T18:42:59.009Z,17.81
2023-05-10T18:45:31.048Z,18.07
2023-05-10T18:48:05.850Z,17.76
2023-05-10T18:50:37.971Z,17.34
2023-05-10T18:53:09.618Z,17.83
2023-05-10T18:55:41.221Z,18.12
2023-05-10T18:58:12.816Z,17.39
2023-05-10T19:00:44.379Z,17.77
2023-05-10T19:03:16.217Z,17.83
2023-05-10T19:05:48.920Z,17.89
2023-05-10T19:08:20.517Z,18.07
2023-05-10T19:10:52.126Z,17.63
2023-05-10T19:13:24.919Z,17.30
2023-05-10T19:16:11.276Z,16.64
2023-05-10T19:18:45.422Z,16.58
2023-05-10T19:21:17.300Z,16.05
2023-05-10T19:23:48.981Z,17.28
2023-05-10T19:26:21.012Z,17.45
2023-05-10T19:28:54.520Z,17.58
2023-05-10T19:31:26.081Z,17.92
2023-05-10T19:34:00.026Z,17.71
2023-05-10T19:36:34.385Z,17.95
2023-05-10T19:39:09.171Z,18.13
2023-05-10T19:41:40.801Z,18.11
2023-05-10T19:44:12.695Z,18.19
2023-05-10T19:46:44.482Z,17.61
2023-05-10T19:49:17.397Z,17.95
2023-05-10T19:51:49.260Z,18.14
2023-05-10T19:54:20.909Z,17.99
2023-05-10T19:56:52.658Z,17.99
2023-05-10T19:59:24.381Z,17.51
2023-05-10T20:02:23.393Z,17.57
2023-05-10T20:04:55.162Z,17.68
2023-05-10T20:07:26.684Z,17.80
2023-05-10T20:09:58.433Z,17.87
2023-05-10T20:12:30.099Z,18.22
2023-05-10T20:15:02.269Z,17.89
2023-05-10T20:17:35.570Z,18.02
2023-05-10T20:20:07.708Z,17.99
2023-05-10T20:22:40.122Z,16.42
2023-05-10T20:25:12.673Z,17.54
2023-05-10T20:27:49.755Z,17.94
2023-05-10T20:30:21.606Z,18.00
2023-05-10T20:32:53.279Z,17.90
2023-05-10T20:35:24.826Z,17.95
2023-05-10T20:37:56.376Z,17.92
2023-05-10T20:40:28.207Z,17.91
2023-05-10T20:42:59.716Z,18.01
2023-05-10T20:45:31.549Z,17.95
2023-05-10T20:48:03.784Z,17.83
2023-05-10T20:50:35.633Z,17.83
2023-05-10T20:53:07.392Z,17.96
2023-05-10T20:55:39.236Z,17.77
2023-05-10T20:58:10.789Z,17.73
2023-05-10T21:00:42.535Z,17.65
2023-05-10T21:03:14.517Z,17.73
2023-05-10T21:05:46.150Z,17.74
2023-05-10T21:08:17.711Z,17.73
2023-05-10T21:10:49.550Z,17.80
2023-05-10T21:13:21.149Z,17.87
2023-05-10T21:15:53.248Z,17.85
2023-05-10T21:18:24.934Z,17.89
2023-05-10T21:20:56.610Z,17.69
2023-05-10T21:23:28.208Z,17.64
2023-05-10T21:26:00.523Z,17.67
2023-05-10T21:28:32.192Z,17.87
2023-05-10T21:31:08.112Z,17.98
2023-05-10T21:33:39.774Z,17.99
2023-05-10T21:36:11.377Z,17.98
2023-05-10T21:38:44.589Z,17.73
2023-05-10T21:41:17.468Z,16.99
2023-05-10T21:43:49.119Z,17.62
2023-05-10T21:46:20.747Z,17.21
2023-05-10T21:48:52.423Z,17.61
2023-05-10T21:51:23.995Z,17.14
2023-05-10T21:53:55.645Z,16.08
2023-05-10T21:56:27.272Z,17.38
2023-05-10T21:58:58.857Z,17.15
2023-05-10T22:01:30.866Z,17.07
2023-05-10T22:04:02.479Z,17.58
2023-05-10T22:06:34.022Z,17.32
2023-05-10T22:09:05.691Z,17.43
2023-05-10T22:11:37.329Z,17.57
2023-05-10T22:14:09.067Z,17.67
2023-05-10T22:16:43.664Z,17.88
2023-05-10T22:19:15.235Z,16.58
2023-05-10T22:21:46.832Z,17.22
2023-05-10T22:24:18.537Z,17.66
2023-05-10T22:26:50.067Z,17.72
2023-05-10T22:29:22.664Z,17.31
2023-05-10T22:31:54.230Z,17.09
2023-05-10T22:34:25.890Z,16.54
2023-05-10T22:36:57.452Z,16.89
2023-05-10T22:39:29.201Z,16.39
2023-05-10T22:42:00.918Z,16.65
2023-05-10T22:44:32.483Z,17.46
2023-05-10T22:47:06.529Z,17.85
2023-05-10T22:49:38.239Z,17.78
2023-05-10T22:52:10.023Z,18.02
2023-05-10T22:54:41.692Z,18.18
2023-05-10T22:57:13.347Z,18.21
2023-05-10T22:59:44.960Z,18.16
2023-05-10T23:02:16.792Z,17.55
2023-05-10T23:04:48.559Z,17.00
2023-05-10T23:07:20.508Z,16.96
2023-05-10T23:09:52.434Z,17.58
2023-05-10T23:12:24.035Z,17.15
2023-05-10T23:14:56.552Z,17.20
2023-05-10T23:17:28.389Z,17.19
2023-05-10T23:20:00.012Z,16.80
2023-05-10T23:22:31.962Z,17.18
2023-05-10T23:25:03.853Z,17.29
2023-05-10T23:27:35.428Z,17.30
2023-05-10T23:30:08.014Z,16.91
2023-05-10T23:32:41.597Z,16.74
2023-05-10T23:35:13.191Z,16.29
2023-05-10T23:37:44.706Z,16.25
2023-05-10T23:40:17.104Z,17.18
2023-05-10T23:42:48.895Z,17.18
2023-05-10T23:45:20.546Z,16.75
2023-05-10T23:47:52.750Z,16.50
2023-05-10T23:50:24.481Z,16.66
2023-05-10T23:52:56.020Z,16.12
2023-05-10T23:55:27.702Z,15.95
2023-05-10T23:57:59.233Z,16.79
